<?xml version="1.0" encoding="utf-8"?>
<gpx xmlns:xsi="http://www.w3.org/2001/XMLSchema-instance" xmlns:xsd="http://www.w3.org/2001/XMLSchema" version="1.1" creator="Shapelink.com" xmlns="http://www.topografix.com/GPX/1/1" xmlns:gpxtpx="http://www.garmin.com/xmlschemas/TrackPointExtension/v1">
  <metadata>
    <name>Cykling 20.38 km, 2019-05-26</name>
    <desc></desc>
    <author><name>Marian Moron</name></author> 
    <time>2019-05-26T15:20:34Z</time>
  </metadata>
  <trk>
    <name>Cykling 20.38 km, 2019-05-26</name>
    <trkseg>
      <trkpt lat="51.444107051184" lon="3.594853747148">
        <ele>12.2</ele>
        <time>2019-05-26T15:20:34Z</time>
      </trkpt>
      <trkpt lat="51.444083833321" lon="3.594510592162">
        <ele>2.4</ele>
        <time>2019-05-26T15:20:46Z</time>
      </trkpt>
      <trkpt lat="51.444041420907" lon="3.594505479203">
        <ele>1.2</ele>
        <time>2019-05-26T15:20:49Z</time>
      </trkpt>
      <trkpt lat="51.443621487717" lon="3.595011494506">
        <ele>0</ele>
        <time>2019-05-26T15:21:13Z</time>
      </trkpt>
      <trkpt lat="51.443580835502" lon="3.595898550983">
        <ele>0</ele>
        <time>2019-05-26T15:21:29Z</time>
      </trkpt>
      <trkpt lat="51.443799686911" lon="3.596692316913">
        <ele>0</ele>
        <time>2019-05-26T15:21:43Z</time>
      </trkpt>
      <trkpt lat="51.443937652985" lon="3.596813854463">
        <ele>0</ele>
        <time>2019-05-26T15:21:48Z</time>
      </trkpt>
      <trkpt lat="51.443987944385" lon="3.596812513359">
        <ele>0</ele>
        <time>2019-05-26T15:21:50Z</time>
      </trkpt>
      <trkpt lat="51.44401099461" lon="3.596868336813">
        <ele>0</ele>
        <time>2019-05-26T15:21:52Z</time>
      </trkpt>
      <trkpt lat="51.443982831426" lon="3.596876802532">
        <ele>0</ele>
        <time>2019-05-26T15:21:55Z</time>
      </trkpt>
      <trkpt lat="51.443940754288" lon="3.596794324636">
        <ele>0</ele>
        <time>2019-05-26T15:21:58Z</time>
      </trkpt>
      <trkpt lat="51.443616374758" lon="3.596088317199">
        <ele>0</ele>
        <time>2019-05-26T15:22:16Z</time>
      </trkpt>
      <trkpt lat="51.443189400772" lon="3.595677268823">
        <ele>0</ele>
        <time>2019-05-26T15:22:38Z</time>
      </trkpt>
      <trkpt lat="51.44299259376" lon="3.595536955817">
        <ele>0</ele>
        <time>2019-05-26T15:22:54Z</time>
      </trkpt>
      <trkpt lat="51.442879102834" lon="3.59546294364">
        <ele>0</ele>
        <time>2019-05-26T15:23:05Z</time>
      </trkpt>
      <trkpt lat="51.442833002384" lon="3.595469816798">
        <ele>0</ele>
        <time>2019-05-26T15:23:12Z</time>
      </trkpt>
      <trkpt lat="51.442804336286" lon="3.595596467307">
        <ele>0</ele>
        <time>2019-05-26T15:23:20Z</time>
      </trkpt>
      <trkpt lat="51.44260786455" lon="3.596403644277">
        <ele>0</ele>
        <time>2019-05-26T15:23:41Z</time>
      </trkpt>
      <trkpt lat="51.442567296154" lon="3.596494084978">
        <ele>0</ele>
        <time>2019-05-26T15:23:47Z</time>
      </trkpt>
      <trkpt lat="51.442512394709" lon="3.596484194336">
        <ele>0</ele>
        <time>2019-05-26T15:23:54Z</time>
      </trkpt>
      <trkpt lat="51.442264374288" lon="3.59636232151">
        <ele>0</ele>
        <time>2019-05-26T15:24:13Z</time>
      </trkpt>
      <trkpt lat="51.442216681277" lon="3.596217901373">
        <ele>0</ele>
        <time>2019-05-26T15:24:19Z</time>
      </trkpt>
      <trkpt lat="51.44169507564" lon="3.595922523217">
        <ele>0</ele>
        <time>2019-05-26T15:24:40Z</time>
      </trkpt>
      <trkpt lat="51.441606646595" lon="3.595935515162">
        <ele>0</ele>
        <time>2019-05-26T15:24:49Z</time>
      </trkpt>
      <trkpt lat="51.441505057967" lon="3.595951356953">
        <ele>0</ele>
        <time>2019-05-26T15:25:00Z</time>
      </trkpt>
      <trkpt lat="51.441490724918" lon="3.595981028879">
        <ele>0</ele>
        <time>2019-05-26T15:25:03Z</time>
      </trkpt>
      <trkpt lat="51.44146792615" lon="3.595997541222">
        <ele>0</ele>
        <time>2019-05-26T15:25:05Z</time>
      </trkpt>
      <trkpt lat="51.4412038963" lon="3.596723246124">
        <ele>0</ele>
        <time>2019-05-26T15:25:22Z</time>
      </trkpt>
      <trkpt lat="51.441134913263" lon="3.597081069435">
        <ele>0</ele>
        <time>2019-05-26T15:25:27Z</time>
      </trkpt>
      <trkpt lat="51.440931065455" lon="3.597944153678">
        <ele>0</ele>
        <time>2019-05-26T15:25:40Z</time>
      </trkpt>
      <trkpt lat="51.440782035273" lon="3.598363332497">
        <ele>0</ele>
        <time>2019-05-26T15:25:47Z</time>
      </trkpt>
      <trkpt lat="51.440405687963" lon="3.599037153438">
        <ele>0</ele>
        <time>2019-05-26T15:26:01Z</time>
      </trkpt>
      <trkpt lat="51.440318180927" lon="3.599357761113">
        <ele>0</ele>
        <time>2019-05-26T15:27:14Z</time>
      </trkpt>
      <trkpt lat="51.440338297487" lon="3.599273187742">
        <ele>0</ele>
        <time>2019-05-26T15:27:21Z</time>
      </trkpt>
      <trkpt lat="51.440372830915" lon="3.599142513921">
        <ele>0</ele>
        <time>2019-05-26T15:27:33Z</time>
      </trkpt>
      <trkpt lat="51.440729648398" lon="3.598475901414">
        <ele>0</ele>
        <time>2019-05-26T15:27:51Z</time>
      </trkpt>
      <trkpt lat="51.441009939134" lon="3.597693534868">
        <ele>0</ele>
        <time>2019-05-26T15:28:07Z</time>
      </trkpt>
      <trkpt lat="51.441196017314" lon="3.596823577467">
        <ele>0</ele>
        <time>2019-05-26T15:28:22Z</time>
      </trkpt>
      <trkpt lat="51.441406822099" lon="3.596029392442">
        <ele>0</ele>
        <time>2019-05-26T15:28:41Z</time>
      </trkpt>
      <trkpt lat="51.4417822474" lon="3.595891845463">
        <ele>0</ele>
        <time>2019-05-26T15:28:54Z</time>
      </trkpt>
      <trkpt lat="51.441880064173" lon="3.595955464084">
        <ele>0</ele>
        <time>2019-05-26T15:28:56Z</time>
      </trkpt>
      <trkpt lat="51.442364705631" lon="3.596360980406">
        <ele>0</ele>
        <time>2019-05-26T15:29:09Z</time>
      </trkpt>
      <trkpt lat="51.442382475259" lon="3.596372798885">
        <ele>0</ele>
        <time>2019-05-26T15:29:10Z</time>
      </trkpt>
      <trkpt lat="51.442622365237" lon="3.596456031152">
        <ele>0</ele>
        <time>2019-05-26T15:29:28Z</time>
      </trkpt>
      <trkpt lat="51.442798049861" lon="3.595633682943">
        <ele>0</ele>
        <time>2019-05-26T15:29:50Z</time>
      </trkpt>
      <trkpt lat="51.442879354291" lon="3.595376442432">
        <ele>0</ele>
        <time>2019-05-26T15:29:58Z</time>
      </trkpt>
      <trkpt lat="51.44292637675" lon="3.595436289198">
        <ele>0</ele>
        <time>2019-05-26T15:30:07Z</time>
      </trkpt>
      <trkpt lat="51.443040202952" lon="3.595551959418">
        <ele>0</ele>
        <time>2019-05-26T15:30:19Z</time>
      </trkpt>
      <trkpt lat="51.443581338416" lon="3.595647513078">
        <ele>0</ele>
        <time>2019-05-26T15:30:35Z</time>
      </trkpt>
      <trkpt lat="51.443690135478" lon="3.595639214997">
        <ele>0</ele>
        <time>2019-05-26T15:30:38Z</time>
      </trkpt>
      <trkpt lat="51.443790131545" lon="3.595691266596">
        <ele>0</ele>
        <time>2019-05-26T15:30:41Z</time>
      </trkpt>
      <trkpt lat="51.443851403234" lon="3.595629240536">
        <ele>0</ele>
        <time>2019-05-26T15:30:43Z</time>
      </trkpt>
      <trkpt lat="51.443884008825" lon="3.595499907819">
        <ele>0</ele>
        <time>2019-05-26T15:30:45Z</time>
      </trkpt>
      <trkpt lat="51.443891384897" lon="3.595050721798">
        <ele>0</ele>
        <time>2019-05-26T15:30:51Z</time>
      </trkpt>
      <trkpt lat="51.443928349076" lon="3.594922730185">
        <ele>0</ele>
        <time>2019-05-26T15:30:53Z</time>
      </trkpt>
      <trkpt lat="51.443997918846" lon="3.594834468778">
        <ele>0</ele>
        <time>2019-05-26T15:30:55Z</time>
      </trkpt>
      <trkpt lat="51.444088443366" lon="3.594780908437">
        <ele>0</ele>
        <time>2019-05-26T15:30:57Z</time>
      </trkpt>
      <trkpt lat="51.444449116523" lon="3.594757690574">
        <ele>0</ele>
        <time>2019-05-26T15:31:04Z</time>
      </trkpt>
      <trkpt lat="51.444547184753" lon="3.594806892327">
        <ele>0</ele>
        <time>2019-05-26T15:31:06Z</time>
      </trkpt>
      <trkpt lat="51.44464298987" lon="3.594809658354">
        <ele>0</ele>
        <time>2019-05-26T15:31:08Z</time>
      </trkpt>
      <trkpt lat="51.445184292972" lon="3.594688539899">
        <ele>0</ele>
        <time>2019-05-26T15:31:19Z</time>
      </trkpt>
      <trkpt lat="51.445722662409" lon="3.59459122604">
        <ele>0</ele>
        <time>2019-05-26T15:31:31Z</time>
      </trkpt>
      <trkpt lat="51.445851743669" lon="3.594561805571">
        <ele>0</ele>
        <time>2019-05-26T15:31:37Z</time>
      </trkpt>
      <trkpt lat="51.445856269895" lon="3.594569181643">
        <ele>0</ele>
        <time>2019-05-26T15:33:21Z</time>
      </trkpt>
      <trkpt lat="51.445886277097" lon="3.5945610512">
        <ele>0</ele>
        <time>2019-05-26T15:33:26Z</time>
      </trkpt>
      <trkpt lat="51.446437973755" lon="3.594416798701">
        <ele>0</ele>
        <time>2019-05-26T15:33:47Z</time>
      </trkpt>
      <trkpt lat="51.446992184983" lon="3.594334991357">
        <ele>0</ele>
        <time>2019-05-26T15:34:00Z</time>
      </trkpt>
      <trkpt lat="51.447547821134" lon="3.594165509339">
        <ele>0</ele>
        <time>2019-05-26T15:34:14Z</time>
      </trkpt>
      <trkpt lat="51.447986194504" lon="3.593658739665">
        <ele>0</ele>
        <time>2019-05-26T15:34:28Z</time>
      </trkpt>
      <trkpt lat="51.448242596825" lon="3.592845360089">
        <ele>0</ele>
        <time>2019-05-26T15:34:43Z</time>
      </trkpt>
      <trkpt lat="51.448420879838" lon="3.592017898921">
        <ele>0</ele>
        <time>2019-05-26T15:34:59Z</time>
      </trkpt>
      <trkpt lat="51.448629337691" lon="3.591321530669">
        <ele>0</ele>
        <time>2019-05-26T15:35:13Z</time>
      </trkpt>
      <trkpt lat="51.448709133379" lon="3.591246177388">
        <ele>0</ele>
        <time>2019-05-26T15:35:16Z</time>
      </trkpt>
      <trkpt lat="51.448746265196" lon="3.591126735313">
        <ele>0</ele>
        <time>2019-05-26T15:35:23Z</time>
      </trkpt>
      <trkpt lat="51.448882219614" lon="3.590257699921">
        <ele>0</ele>
        <time>2019-05-26T15:35:40Z</time>
      </trkpt>
      <trkpt lat="51.448958075809" lon="3.589392939298">
        <ele>0</ele>
        <time>2019-05-26T15:35:56Z</time>
      </trkpt>
      <trkpt lat="51.449096125702" lon="3.588516695472">
        <ele>0</ele>
        <time>2019-05-26T15:36:14Z</time>
      </trkpt>
      <trkpt lat="51.449301314614" lon="3.587708261217">
        <ele>0</ele>
        <time>2019-05-26T15:36:34Z</time>
      </trkpt>
      <trkpt lat="51.449486135509" lon="3.586894462546">
        <ele>0</ele>
        <time>2019-05-26T15:36:50Z</time>
      </trkpt>
      <trkpt lat="51.449482447473" lon="3.586676700784">
        <ele>0</ele>
        <time>2019-05-26T15:36:54Z</time>
      </trkpt>
      <trkpt lat="51.449392761143" lon="3.586519037245">
        <ele>0</ele>
        <time>2019-05-26T15:36:59Z</time>
      </trkpt>
      <trkpt lat="51.449558555125" lon="3.585659305762">
        <ele>0</ele>
        <time>2019-05-26T15:37:19Z</time>
      </trkpt>
      <trkpt lat="51.449824848088" lon="3.584999231137">
        <ele>0</ele>
        <time>2019-05-26T15:37:36Z</time>
      </trkpt>
      <trkpt lat="51.449803558062" lon="3.584966374089">
        <ele>0</ele>
        <time>2019-05-26T15:37:37Z</time>
      </trkpt>
      <trkpt lat="51.449777657991" lon="3.584880040519">
        <ele>0</ele>
        <time>2019-05-26T15:37:39Z</time>
      </trkpt>
      <trkpt lat="51.449913025676" lon="3.583992062033">
        <ele>0</ele>
        <time>2019-05-26T15:37:53Z</time>
      </trkpt>
      <trkpt lat="51.450013776114" lon="3.583096623656">
        <ele>0</ele>
        <time>2019-05-26T15:38:07Z</time>
      </trkpt>
      <trkpt lat="51.450100864055" lon="3.582183583289">
        <ele>0.8</ele>
        <time>2019-05-26T15:38:20Z</time>
      </trkpt>
      <trkpt lat="51.450200776303" lon="3.581297951735">
        <ele>6.4</ele>
        <time>2019-05-26T15:38:33Z</time>
      </trkpt>
      <trkpt lat="51.450341089309" lon="3.580436879148">
        <ele>2.4</ele>
        <time>2019-05-26T15:38:49Z</time>
      </trkpt>
      <trkpt lat="51.45049187969" lon="3.579572705258">
        <ele>0</ele>
        <time>2019-05-26T15:39:06Z</time>
      </trkpt>
      <trkpt lat="51.450668570142" lon="3.578719595476">
        <ele>0</ele>
        <time>2019-05-26T15:39:25Z</time>
      </trkpt>
      <trkpt lat="51.450784408" lon="3.57784838079">
        <ele>0</ele>
        <time>2019-05-26T15:39:41Z</time>
      </trkpt>
      <trkpt lat="51.450919105133" lon="3.577023015097">
        <ele>0</ele>
        <time>2019-05-26T15:39:58Z</time>
      </trkpt>
      <trkpt lat="51.45098976455" lon="3.576888737059">
        <ele>0</ele>
        <time>2019-05-26T15:40:02Z</time>
      </trkpt>
      <trkpt lat="51.45095120781" lon="3.576789327725">
        <ele>0</ele>
        <time>2019-05-26T15:40:08Z</time>
      </trkpt>
      <trkpt lat="51.450916339106" lon="3.576769043527">
        <ele>0</ele>
        <time>2019-05-26T15:40:46Z</time>
      </trkpt>
      <trkpt lat="51.450902089876" lon="3.576730989701">
        <ele>0</ele>
        <time>2019-05-26T15:40:48Z</time>
      </trkpt>
      <trkpt lat="51.450569412265" lon="3.575982066936">
        <ele>0</ele>
        <time>2019-05-26T15:41:06Z</time>
      </trkpt>
      <trkpt lat="51.450277219231" lon="3.575256445853">
        <ele>0</ele>
        <time>2019-05-26T15:41:20Z</time>
      </trkpt>
      <trkpt lat="51.449987205491" lon="3.574518838653">
        <ele>0</ele>
        <time>2019-05-26T15:41:35Z</time>
      </trkpt>
      <trkpt lat="51.44966877711" lon="3.5738074668">
        <ele>0</ele>
        <time>2019-05-26T15:41:50Z</time>
      </trkpt>
      <trkpt lat="51.449311037618" lon="3.5731369148">
        <ele>0</ele>
        <time>2019-05-26T15:42:03Z</time>
      </trkpt>
      <trkpt lat="51.449057904238" lon="3.572472565406">
        <ele>0</ele>
        <time>2019-05-26T15:42:18Z</time>
      </trkpt>
      <trkpt lat="51.449047426863" lon="3.572491257043">
        <ele>3.6</ele>
        <time>2019-05-26T15:42:33Z</time>
      </trkpt>
      <trkpt lat="51.449041894809" lon="3.57239008751">
        <ele>3.2</ele>
        <time>2019-05-26T15:42:41Z</time>
      </trkpt>
      <trkpt lat="51.448755652924" lon="3.57162398185">
        <ele>0</ele>
        <time>2019-05-26T15:42:59Z</time>
      </trkpt>
      <trkpt lat="51.448477373844" lon="3.570871454868">
        <ele>0</ele>
        <time>2019-05-26T15:43:12Z</time>
      </trkpt>
      <trkpt lat="51.448162214404" lon="3.570156394979">
        <ele>0</ele>
        <time>2019-05-26T15:43:26Z</time>
      </trkpt>
      <trkpt lat="51.447850743" lon="3.569438904339">
        <ele>0</ele>
        <time>2019-05-26T15:43:40Z</time>
      </trkpt>
      <trkpt lat="51.447530302963" lon="3.568690903583">
        <ele>0</ele>
        <time>2019-05-26T15:43:55Z</time>
      </trkpt>
      <trkpt lat="51.447245653639" lon="3.568014651891">
        <ele>0</ele>
        <time>2019-05-26T15:44:08Z</time>
      </trkpt>
      <trkpt lat="51.447153871834" lon="3.56772053102">
        <ele>0</ele>
        <time>2019-05-26T15:44:14Z</time>
      </trkpt>
      <trkpt lat="51.447403484816" lon="3.566939086483">
        <ele>0</ele>
        <time>2019-05-26T15:44:29Z</time>
      </trkpt>
      <trkpt lat="51.447526447289" lon="3.566583442466">
        <ele>0</ele>
        <time>2019-05-26T15:44:35Z</time>
      </trkpt>
      <trkpt lat="51.447736916798" lon="3.565782468102">
        <ele>0</ele>
        <time>2019-05-26T15:44:51Z</time>
      </trkpt>
      <trkpt lat="51.447749741105" lon="3.565760926619">
        <ele>0</ele>
        <time>2019-05-26T15:44:55Z</time>
      </trkpt>
      <trkpt lat="51.447739179911" lon="3.565798477531">
        <ele>0</ele>
        <time>2019-05-26T15:45:12Z</time>
      </trkpt>
      <trkpt lat="51.447776647004" lon="3.565733769263">
        <ele>0</ele>
        <time>2019-05-26T15:45:19Z</time>
      </trkpt>
      <trkpt lat="51.447903884246" lon="3.564925670284">
        <ele>0</ele>
        <time>2019-05-26T15:45:34Z</time>
      </trkpt>
      <trkpt lat="51.447675142195" lon="3.564172975664">
        <ele>0</ele>
        <time>2019-05-26T15:45:53Z</time>
      </trkpt>
      <trkpt lat="51.447512868611" lon="3.563329085972">
        <ele>0</ele>
        <time>2019-05-26T15:46:08Z</time>
      </trkpt>
      <trkpt lat="51.447529548592" lon="3.563289439585">
        <ele>0</ele>
        <time>2019-05-26T15:46:09Z</time>
      </trkpt>
      <trkpt lat="51.447565087848" lon="3.563212577562">
        <ele>0</ele>
        <time>2019-05-26T15:46:12Z</time>
      </trkpt>
      <trkpt lat="51.447529548592" lon="3.563233951407">
        <ele>0</ele>
        <time>2019-05-26T15:46:15Z</time>
      </trkpt>
      <trkpt lat="51.447650750866" lon="3.564068285733">
        <ele>0</ele>
        <time>2019-05-26T15:46:29Z</time>
      </trkpt>
      <trkpt lat="51.447673549634" lon="3.564132910182">
        <ele>0</ele>
        <time>2019-05-26T15:46:34Z</time>
      </trkpt>
      <trkpt lat="51.447852670837" lon="3.564490062941">
        <ele>0</ele>
        <time>2019-05-26T15:46:50Z</time>
      </trkpt>
      <trkpt lat="51.448052998247" lon="3.563681377229">
        <ele>0</ele>
        <time>2019-05-26T15:47:06Z</time>
      </trkpt>
      <trkpt lat="51.44822541393" lon="3.562857520278">
        <ele>0</ele>
        <time>2019-05-26T15:47:24Z</time>
      </trkpt>
      <trkpt lat="51.448596229186" lon="3.562273888581">
        <ele>0</ele>
        <time>2019-05-26T15:47:51Z</time>
      </trkpt>
      <trkpt lat="51.449078775169" lon="3.561839287066">
        <ele>0</ele>
        <time>2019-05-26T15:48:06Z</time>
      </trkpt>
      <trkpt lat="51.449587556499" lon="3.561425053568">
        <ele>0</ele>
        <time>2019-05-26T15:48:23Z</time>
      </trkpt>
      <trkpt lat="51.450074209613" lon="3.560991793157">
        <ele>0</ele>
        <time>2019-05-26T15:48:38Z</time>
      </trkpt>
      <trkpt lat="51.450393727641" lon="3.560635730045">
        <ele>0</ele>
        <time>2019-05-26T15:48:48Z</time>
      </trkpt>
      <trkpt lat="51.450404288835" lon="3.560563897162">
        <ele>0</ele>
        <time>2019-05-26T15:48:50Z</time>
      </trkpt>
      <trkpt lat="51.450859677462" lon="3.559980265465">
        <ele>0</ele>
        <time>2019-05-26T15:49:11Z</time>
      </trkpt>
      <trkpt lat="51.451304001981" lon="3.559379367054">
        <ele>0</ele>
        <time>2019-05-26T15:49:24Z</time>
      </trkpt>
      <trkpt lat="51.451658053437" lon="3.558719879162">
        <ele>0</ele>
        <time>2019-05-26T15:49:36Z</time>
      </trkpt>
      <trkpt lat="51.451941361657" lon="3.557910187622">
        <ele>0</ele>
        <time>2019-05-26T15:49:51Z</time>
      </trkpt>
      <trkpt lat="51.452090894753" lon="3.557069818328">
        <ele>0</ele>
        <time>2019-05-26T15:50:05Z</time>
      </trkpt>
      <trkpt lat="51.45227722439" lon="3.556227688835">
        <ele>0</ele>
        <time>2019-05-26T15:50:21Z</time>
      </trkpt>
      <trkpt lat="51.452395995913" lon="3.555708178673">
        <ele>0</ele>
        <time>2019-05-26T15:51:03Z</time>
      </trkpt>
      <trkpt lat="51.452819114225" lon="3.55516360663">
        <ele>0</ele>
        <time>2019-05-26T15:51:24Z</time>
      </trkpt>
      <trkpt lat="51.453288835901" lon="3.5547134986">
        <ele>0</ele>
        <time>2019-05-26T15:51:40Z</time>
      </trkpt>
      <trkpt lat="51.453709942557" lon="3.554347041932">
        <ele>0</ele>
        <time>2019-05-26T15:51:54Z</time>
      </trkpt>
      <trkpt lat="51.453649676696" lon="3.554011849751">
        <ele>0</ele>
        <time>2019-05-26T15:52:00Z</time>
      </trkpt>
      <trkpt lat="51.453343988803" lon="3.553300561717">
        <ele>0</ele>
        <time>2019-05-26T15:52:14Z</time>
      </trkpt>
      <trkpt lat="51.453291769566" lon="3.552453570722">
        <ele>0</ele>
        <time>2019-05-26T15:52:32Z</time>
      </trkpt>
      <trkpt lat="51.453219266131" lon="3.551576404887">
        <ele>0</ele>
        <time>2019-05-26T15:52:49Z</time>
      </trkpt>
      <trkpt lat="51.453001252912" lon="3.550775095247">
        <ele>0.8</ele>
        <time>2019-05-26T15:53:05Z</time>
      </trkpt>
      <trkpt lat="51.45269296663" lon="3.550069339267">
        <ele>0</ele>
        <time>2019-05-26T15:53:17Z</time>
      </trkpt>
      <trkpt lat="51.452719621072" lon="3.549212709087">
        <ele>0</ele>
        <time>2019-05-26T15:53:32Z</time>
      </trkpt>
      <trkpt lat="51.452870998186" lon="3.548347780826">
        <ele>0</ele>
        <time>2019-05-26T15:53:47Z</time>
      </trkpt>
      <trkpt lat="51.45305757928" lon="3.547491485922">
        <ele>0</ele>
        <time>2019-05-26T15:54:02Z</time>
      </trkpt>
      <trkpt lat="51.453426299061" lon="3.546818084076">
        <ele>0</ele>
        <time>2019-05-26T15:54:17Z</time>
      </trkpt>
      <trkpt lat="51.453844891147" lon="3.546225819022">
        <ele>0</ele>
        <time>2019-05-26T15:54:32Z</time>
      </trkpt>
      <trkpt lat="51.454253341134" lon="3.545647551741">
        <ele>0</ele>
        <time>2019-05-26T15:54:49Z</time>
      </trkpt>
      <trkpt lat="51.45468031512" lon="3.545050425185">
        <ele>0</ele>
        <time>2019-05-26T15:55:04Z</time>
      </trkpt>
      <trkpt lat="51.455012154541" lon="3.544339640065">
        <ele>0</ele>
        <time>2019-05-26T15:55:18Z</time>
      </trkpt>
      <trkpt lat="51.455205357336" lon="3.543501366246">
        <ele>0</ele>
        <time>2019-05-26T15:55:36Z</time>
      </trkpt>
      <trkpt lat="51.455258163306" lon="3.543400029075">
        <ele>0</ele>
        <time>2019-05-26T15:55:37Z</time>
      </trkpt>
      <trkpt lat="51.455393698629" lon="3.543188889014">
        <ele>0</ele>
        <time>2019-05-26T15:55:42Z</time>
      </trkpt>
      <trkpt lat="51.455579190076" lon="3.542660913133">
        <ele>0</ele>
        <time>2019-05-26T15:55:59Z</time>
      </trkpt>
      <trkpt lat="51.456010103555" lon="3.542091027752">
        <ele>0</ele>
        <time>2019-05-26T15:56:17Z</time>
      </trkpt>
      <trkpt lat="51.45647236534" lon="3.541631280537">
        <ele>0</ele>
        <time>2019-05-26T15:56:30Z</time>
      </trkpt>
      <trkpt lat="51.456893304358" lon="3.541041949148">
        <ele>0</ele>
        <time>2019-05-26T15:56:44Z</time>
      </trkpt>
      <trkpt lat="51.45729798249" lon="3.54045756308">
        <ele>0</ele>
        <time>2019-05-26T15:56:56Z</time>
      </trkpt>
      <trkpt lat="51.457505518334" lon="3.540049113093">
        <ele>0</ele>
        <time>2019-05-26T15:57:03Z</time>
      </trkpt>
      <trkpt lat="51.457797376092" lon="3.539289293858">
        <ele>0</ele>
        <time>2019-05-26T15:57:16Z</time>
      </trkpt>
      <trkpt lat="51.457864012197" lon="3.539043452731">
        <ele>0</ele>
        <time>2019-05-26T15:57:23Z</time>
      </trkpt>
      <trkpt lat="51.457835849013" lon="3.538973212409">
        <ele>0</ele>
        <time>2019-05-26T15:57:26Z</time>
      </trkpt>
      <trkpt lat="51.457806680001" lon="3.538929039796">
        <ele>0</ele>
        <time>2019-05-26T15:57:33Z</time>
      </trkpt>
      <trkpt lat="51.457449527242" lon="3.539424996819">
        <ele>0</ele>
        <time>2019-05-26T15:57:58Z</time>
      </trkpt>
      <trkpt lat="51.457014422813" lon="3.539915840883">
        <ele>0</ele>
        <time>2019-05-26T15:58:24Z</time>
      </trkpt>
      <trkpt lat="51.456892466168" lon="3.539956493098">
        <ele>0</ele>
        <time>2019-05-26T15:58:31Z</time>
      </trkpt>
      <trkpt lat="51.456752739895" lon="3.540019273529">
        <ele>0</ele>
        <time>2019-05-26T15:58:42Z</time>
      </trkpt>
      <trkpt lat="51.456287795902" lon="3.54049444344">
        <ele>1.4</ele>
        <time>2019-05-26T15:59:07Z</time>
      </trkpt>
      <trkpt lat="51.456071375244" lon="3.540622937967">
        <ele>2.2</ele>
        <time>2019-05-26T15:59:44Z</time>
      </trkpt>
      <trkpt lat="51.45593340917" lon="3.540687562416">
        <ele>3.4</ele>
        <time>2019-05-26T16:00:16Z</time>
      </trkpt>
      <trkpt lat="51.455945646744" lon="3.540659315413">
        <ele>3</ele>
        <time>2019-05-26T16:02:55Z</time>
      </trkpt>
      <trkpt lat="51.455883704503" lon="3.540717988713">
        <ele>2.4</ele>
        <time>2019-05-26T16:03:05Z</time>
      </trkpt>
      <trkpt lat="51.455794437268" lon="3.540872970044">
        <ele>2</ele>
        <time>2019-05-26T16:03:09Z</time>
      </trkpt>
      <trkpt lat="51.455558067688" lon="3.541650978002">
        <ele>1</ele>
        <time>2019-05-26T16:03:20Z</time>
      </trkpt>
      <trkpt lat="51.455253972356" lon="3.542380203302">
        <ele>1.6</ele>
        <time>2019-05-26T16:03:33Z</time>
      </trkpt>
      <trkpt lat="51.455195382875" lon="3.542482965396">
        <ele>2</ele>
        <time>2019-05-26T16:03:34Z</time>
      </trkpt>
      <trkpt lat="51.455161100904" lon="3.542527389466">
        <ele>2.2</ele>
        <time>2019-05-26T16:03:36Z</time>
      </trkpt>
      <trkpt lat="51.454853988088" lon="3.54297213308">
        <ele>2</ele>
        <time>2019-05-26T16:03:46Z</time>
      </trkpt>
      <trkpt lat="51.45469624073" lon="3.543828511803">
        <ele>2.2</ele>
        <time>2019-05-26T16:03:57Z</time>
      </trkpt>
      <trkpt lat="51.454622228553" lon="3.544090027083">
        <ele>2</ele>
        <time>2019-05-26T16:04:00Z</time>
      </trkpt>
      <trkpt lat="51.454283599793" lon="3.544764602395">
        <ele>2.4</ele>
        <time>2019-05-26T16:04:09Z</time>
      </trkpt>
      <trkpt lat="51.453877412919" lon="3.545383521891">
        <ele>2</ele>
        <time>2019-05-26T16:04:19Z</time>
      </trkpt>
      <trkpt lat="51.453469717303" lon="3.545977798601">
        <ele>1.6</ele>
        <time>2019-05-26T16:04:29Z</time>
      </trkpt>
      <trkpt lat="51.453044587335" lon="3.546566627076">
        <ele>1.8</ele>
        <time>2019-05-26T16:04:39Z</time>
      </trkpt>
      <trkpt lat="51.45264770437" lon="3.547167860763">
        <ele>0.8</ele>
        <time>2019-05-26T16:04:49Z</time>
      </trkpt>
      <trkpt lat="51.452587019414" lon="3.547302474077">
        <ele>0.6</ele>
        <time>2019-05-26T16:04:51Z</time>
      </trkpt>
      <trkpt lat="51.452446287313" lon="3.548160696818">
        <ele>2</ele>
        <time>2019-05-26T16:05:02Z</time>
      </trkpt>
      <trkpt lat="51.452417453577" lon="3.548586748795">
        <ele>2.4</ele>
        <time>2019-05-26T16:05:07Z</time>
      </trkpt>
      <trkpt lat="51.452282840263" lon="3.549505572673">
        <ele>0.6</ele>
        <time>2019-05-26T16:05:18Z</time>
      </trkpt>
      <trkpt lat="51.4522260948" lon="3.549843279424">
        <ele>0.8</ele>
        <time>2019-05-26T16:05:22Z</time>
      </trkpt>
      <trkpt lat="51.45216490693" lon="3.55009255713">
        <ele>1</ele>
        <time>2019-05-26T16:05:25Z</time>
      </trkpt>
      <trkpt lat="51.452138252488" lon="3.550276372197">
        <ele>0.8</ele>
        <time>2019-05-26T16:05:27Z</time>
      </trkpt>
      <trkpt lat="51.452085697975" lon="3.550449793708">
        <ele>0.4</ele>
        <time>2019-05-26T16:05:29Z</time>
      </trkpt>
      <trkpt lat="51.451814040596" lon="3.551215228816">
        <ele>0</ele>
        <time>2019-05-26T16:05:37Z</time>
      </trkpt>
      <trkpt lat="51.451519416811" lon="3.552022154329">
        <ele>0.2</ele>
        <time>2019-05-26T16:05:46Z</time>
      </trkpt>
      <trkpt lat="51.45116494626" lon="3.552773591664">
        <ele>0</ele>
        <time>2019-05-26T16:05:55Z</time>
      </trkpt>
      <trkpt lat="51.4507424985" lon="3.553317157879">
        <ele>0</ele>
        <time>2019-05-26T16:06:03Z</time>
      </trkpt>
      <trkpt lat="51.450310495374" lon="3.553916799005">
        <ele>0</ele>
        <time>2019-05-26T16:06:12Z</time>
      </trkpt>
      <trkpt lat="51.450151658369" lon="3.554227935133">
        <ele>0</ele>
        <time>2019-05-26T16:06:17Z</time>
      </trkpt>
      <trkpt lat="51.450122824633" lon="3.554360201515">
        <ele>0.2</ele>
        <time>2019-05-26T16:06:19Z</time>
      </trkpt>
      <trkpt lat="51.450333377961" lon="3.55521222165">
        <ele>2.2</ele>
        <time>2019-05-26T16:06:33Z</time>
      </trkpt>
      <trkpt lat="51.450535381751" lon="3.556019147163">
        <ele>0.8</ele>
        <time>2019-05-26T16:06:44Z</time>
      </trkpt>
      <trkpt lat="51.450556085044" lon="3.556158957255">
        <ele>0</ele>
        <time>2019-05-26T16:06:46Z</time>
      </trkpt>
      <trkpt lat="51.450386183931" lon="3.556995387056">
        <ele>0</ele>
        <time>2019-05-26T16:07:01Z</time>
      </trkpt>
      <trkpt lat="51.450173702766" lon="3.557787560425">
        <ele>0</ele>
        <time>2019-05-26T16:07:12Z</time>
      </trkpt>
      <trkpt lat="51.449895423686" lon="3.558562886175">
        <ele>0.2</ele>
        <time>2019-05-26T16:07:25Z</time>
      </trkpt>
      <trkpt lat="51.449585041929" lon="3.55930845618">
        <ele>3.2</ele>
        <time>2019-05-26T16:07:37Z</time>
      </trkpt>
      <trkpt lat="51.449291340153" lon="3.560062240447">
        <ele>2.2</ele>
        <time>2019-05-26T16:07:48Z</time>
      </trkpt>
      <trkpt lat="51.44888758403" lon="3.560716950656">
        <ele>2.4</ele>
        <time>2019-05-26T16:08:01Z</time>
      </trkpt>
      <trkpt lat="51.448516098222" lon="3.561245177994">
        <ele>0</ele>
        <time>2019-05-26T16:08:14Z</time>
      </trkpt>
      <trkpt lat="51.44841484487" lon="3.5613771091">
        <ele>0</ele>
        <time>2019-05-26T16:08:17Z</time>
      </trkpt>
      <trkpt lat="51.448344017815" lon="3.561634265792">
        <ele>0</ele>
        <time>2019-05-26T16:08:22Z</time>
      </trkpt>
      <trkpt lat="51.447866500972" lon="3.562099125966">
        <ele>0</ele>
        <time>2019-05-26T16:08:44Z</time>
      </trkpt>
      <trkpt lat="51.447734653685" lon="3.562333902985">
        <ele>0</ele>
        <time>2019-05-26T16:08:53Z</time>
      </trkpt>
      <trkpt lat="51.44773926373" lon="3.562373549372">
        <ele>0</ele>
        <time>2019-05-26T16:08:56Z</time>
      </trkpt>
      <trkpt lat="51.447474144233" lon="3.561988065791">
        <ele>3.8</ele>
        <time>2019-05-26T16:14:27Z</time>
      </trkpt>
      <trkpt lat="51.447256717747" lon="3.562463738616">
        <ele>3.8</ele>
        <time>2019-05-26T16:14:41Z</time>
      </trkpt>
      <trkpt lat="51.447252023883" lon="3.562396180502">
        <ele>3.4</ele>
        <time>2019-05-26T16:14:59Z</time>
      </trkpt>
      <trkpt lat="51.447213048048" lon="3.562451249585">
        <ele>3.2</ele>
        <time>2019-05-26T16:15:06Z</time>
      </trkpt>
      <trkpt lat="51.446747852598" lon="3.562905883841">
        <ele>2.4</ele>
        <time>2019-05-26T16:15:24Z</time>
      </trkpt>
      <trkpt lat="51.446367565795" lon="3.563523881328">
        <ele>0.4</ele>
        <time>2019-05-26T16:15:39Z</time>
      </trkpt>
      <trkpt lat="51.446000522394" lon="3.564218237924">
        <ele>0</ele>
        <time>2019-05-26T16:15:54Z</time>
      </trkpt>
      <trkpt lat="51.44564295054" lon="3.564879318377">
        <ele>0</ele>
        <time>2019-05-26T16:16:08Z</time>
      </trkpt>
      <trkpt lat="51.445277918795" lon="3.565588594755">
        <ele>0</ele>
        <time>2019-05-26T16:16:21Z</time>
      </trkpt>
      <trkpt lat="51.444913892878" lon="3.566304409015">
        <ele>0</ele>
        <time>2019-05-26T16:16:34Z</time>
      </trkpt>
      <trkpt lat="51.444780201573" lon="3.566602301741">
        <ele>0</ele>
        <time>2019-05-26T16:16:39Z</time>
      </trkpt>
      <trkpt lat="51.444395053268" lon="3.567288360256">
        <ele>0</ele>
        <time>2019-05-26T16:16:51Z</time>
      </trkpt>
      <trkpt lat="51.444335541778" lon="3.567428421805">
        <ele>0</ele>
        <time>2019-05-26T16:16:53Z</time>
      </trkpt>
      <trkpt lat="51.444045528038" lon="3.568157563286">
        <ele>0.6</ele>
        <time>2019-05-26T16:17:04Z</time>
      </trkpt>
      <trkpt lat="51.443866155378" lon="3.568586465109">
        <ele>1</ele>
        <time>2019-05-26T16:17:11Z</time>
      </trkpt>
      <trkpt lat="51.443802033843" lon="3.568675732344">
        <ele>1.2</ele>
        <time>2019-05-26T16:17:13Z</time>
      </trkpt>
      <trkpt lat="51.443277075446" lon="3.568635750681">
        <ele>5.4</ele>
        <time>2019-05-26T16:17:30Z</time>
      </trkpt>
      <trkpt lat="51.442772401247" lon="3.5690214019">
        <ele>2</ele>
        <time>2019-05-26T16:17:49Z</time>
      </trkpt>
      <trkpt lat="51.442306786702" lon="3.569448292067">
        <ele>1</ele>
        <time>2019-05-26T16:18:08Z</time>
      </trkpt>
      <trkpt lat="51.441766070333" lon="3.569666389105">
        <ele>0</ele>
        <time>2019-05-26T16:18:28Z</time>
      </trkpt>
      <trkpt lat="51.441272376423" lon="3.570041730587">
        <ele>0</ele>
        <time>2019-05-26T16:18:45Z</time>
      </trkpt>
      <trkpt lat="51.440852946147" lon="3.570362673538">
        <ele>1</ele>
        <time>2019-05-26T16:18:56Z</time>
      </trkpt>
      <trkpt lat="51.440701401395" lon="3.570737428287">
        <ele>1.2</ele>
        <time>2019-05-26T16:19:02Z</time>
      </trkpt>
      <trkpt lat="51.440555053421" lon="3.571573858088">
        <ele>2.2</ele>
        <time>2019-05-26T16:19:13Z</time>
      </trkpt>
      <trkpt lat="51.440406693791" lon="3.572428141336">
        <ele>3.2</ele>
        <time>2019-05-26T16:19:25Z</time>
      </trkpt>
      <trkpt lat="51.440236876497" lon="3.573309246664">
        <ele>4.4</ele>
        <time>2019-05-26T16:19:38Z</time>
      </trkpt>
      <trkpt lat="51.440140819923" lon="3.574210384733">
        <ele>0</ele>
        <time>2019-05-26T16:19:50Z</time>
      </trkpt>
      <trkpt lat="51.440111147997" lon="3.57433804107">
        <ele>0</ele>
        <time>2019-05-26T16:19:52Z</time>
      </trkpt>
      <trkpt lat="51.440062030063" lon="3.574449185064">
        <ele>0</ele>
        <time>2019-05-26T16:19:54Z</time>
      </trkpt>
      <trkpt lat="51.439649724402" lon="3.574994595297">
        <ele>0</ele>
        <time>2019-05-26T16:20:06Z</time>
      </trkpt>
      <trkpt lat="51.439570096352" lon="3.575008760708">
        <ele>0</ele>
        <time>2019-05-26T16:20:09Z</time>
      </trkpt>
      <trkpt lat="51.439556433855" lon="3.574994511478">
        <ele>0</ele>
        <time>2019-05-26T16:20:10Z</time>
      </trkpt>
      <trkpt lat="51.439544196281" lon="3.574964336638">
        <ele>0</ele>
        <time>2019-05-26T16:21:25Z</time>
      </trkpt>
      <trkpt lat="51.439532210164" lon="3.575047401267">
        <ele>0</ele>
        <time>2019-05-26T16:21:34Z</time>
      </trkpt>
      <trkpt lat="51.439558780787" lon="3.575212776154">
        <ele>0</ele>
        <time>2019-05-26T16:21:39Z</time>
      </trkpt>
      <trkpt lat="51.439623991969" lon="3.575263319011">
        <ele>0.2</ele>
        <time>2019-05-26T16:21:41Z</time>
      </trkpt>
      <trkpt lat="51.43977813511" lon="3.575040863385">
        <ele>0.4</ele>
        <time>2019-05-26T16:21:53Z</time>
      </trkpt>
      <trkpt lat="51.439765646079" lon="3.574917817093">
        <ele>0</ele>
        <time>2019-05-26T16:21:57Z</time>
      </trkpt>
      <trkpt lat="51.440237882325" lon="3.574418591129">
        <ele>0</ele>
        <time>2019-05-26T16:22:10Z</time>
      </trkpt>
      <trkpt lat="51.440457739562" lon="3.574244666704">
        <ele>0</ele>
        <time>2019-05-26T16:22:14Z</time>
      </trkpt>
      <trkpt lat="51.440600734776" lon="3.574199991177">
        <ele>0</ele>
        <time>2019-05-26T16:22:17Z</time>
      </trkpt>
      <trkpt lat="51.440672316202" lon="3.574272410793">
        <ele>0</ele>
        <time>2019-05-26T16:22:19Z</time>
      </trkpt>
      <trkpt lat="51.441114796703" lon="3.574489250546">
        <ele>0</ele>
        <time>2019-05-26T16:22:36Z</time>
      </trkpt>
      <trkpt lat="51.441303305634" lon="3.574413142894">
        <ele>0</ele>
        <time>2019-05-26T16:22:52Z</time>
      </trkpt>
      <trkpt lat="51.441350160455" lon="3.574376765448">
        <ele>0</ele>
        <time>2019-05-26T16:23:00Z</time>
      </trkpt>
      <trkpt lat="51.441838070854" lon="3.573981055949">
        <ele>0</ele>
        <time>2019-05-26T16:23:23Z</time>
      </trkpt>
      <trkpt lat="51.442285329038" lon="3.57346716166">
        <ele>0</ele>
        <time>2019-05-26T16:23:55Z</time>
      </trkpt>
      <trkpt lat="51.442315587697" lon="3.573385521954">
        <ele>0</ele>
        <time>2019-05-26T16:23:58Z</time>
      </trkpt>
      <trkpt lat="51.442152308285" lon="3.57254682904">
        <ele>1.8</ele>
        <time>2019-05-26T16:24:15Z</time>
      </trkpt>
      <trkpt lat="51.442096317193" lon="3.57221406761">
        <ele>0.6</ele>
        <time>2019-05-26T16:24:20Z</time>
      </trkpt>
      <trkpt lat="51.441877633422" lon="3.571342433829">
        <ele>4.2</ele>
        <time>2019-05-26T16:24:32Z</time>
      </trkpt>
      <trkpt lat="51.441574879194" lon="3.570629385596">
        <ele>1</ele>
        <time>2019-05-26T16:24:45Z</time>
      </trkpt>
      <trkpt lat="51.441431632523" lon="3.570280279461">
        <ele>0</ele>
        <time>2019-05-26T16:24:52Z</time>
      </trkpt>
      <trkpt lat="51.440968867824" lon="3.570733572613">
        <ele>0</ele>
        <time>2019-05-26T16:25:06Z</time>
      </trkpt>
      <trkpt lat="51.440888820679" lon="3.571612582466">
        <ele>0</ele>
        <time>2019-05-26T16:25:21Z</time>
      </trkpt>
      <trkpt lat="51.440836517623" lon="3.572489077749">
        <ele>0.6</ele>
        <time>2019-05-26T16:25:43Z</time>
      </trkpt>
      <trkpt lat="51.440809863181" lon="3.572550433257">
        <ele>0</ele>
        <time>2019-05-26T16:25:45Z</time>
      </trkpt>
      <trkpt lat="51.440603333165" lon="3.57324085036">
        <ele>9.4</ele>
        <time>2019-05-26T16:26:12Z</time>
      </trkpt>
      <trkpt lat="51.440484813099" lon="3.574133438891">
        <ele>4.4</ele>
        <time>2019-05-26T16:26:32Z</time>
      </trkpt>
      <trkpt lat="51.440481460339" lon="3.574223544316">
        <ele>4.4</ele>
        <time>2019-05-26T16:26:34Z</time>
      </trkpt>
      <trkpt lat="51.440503001822" lon="3.574242738867">
        <ele>4.2</ele>
        <time>2019-05-26T16:26:36Z</time>
      </trkpt>
      <trkpt lat="51.440606769744" lon="3.574249528206">
        <ele>6.4</ele>
        <time>2019-05-26T16:26:41Z</time>
      </trkpt>
      <trkpt lat="51.44092394084" lon="3.57500859307">
        <ele>3.2</ele>
        <time>2019-05-26T16:26:57Z</time>
      </trkpt>
      <trkpt lat="51.441330211533" lon="3.575678809794">
        <ele>2.2</ele>
        <time>2019-05-26T16:27:10Z</time>
      </trkpt>
      <trkpt lat="51.441548140933" lon="3.576068232868">
        <ele>2</ele>
        <time>2019-05-26T16:27:17Z</time>
      </trkpt>
      <trkpt lat="51.441956004187" lon="3.576684721613">
        <ele>1.6</ele>
        <time>2019-05-26T16:27:32Z</time>
      </trkpt>
      <trkpt lat="51.442110231147" lon="3.57719291621">
        <ele>2.6</ele>
        <time>2019-05-26T16:27:41Z</time>
      </trkpt>
      <trkpt lat="51.442248700135" lon="3.578075865556">
        <ele>1.6</ele>
        <time>2019-05-26T16:27:53Z</time>
      </trkpt>
      <trkpt lat="51.442416338135" lon="3.578893855177">
        <ele>3.6</ele>
        <time>2019-05-26T16:28:04Z</time>
      </trkpt>
      <trkpt lat="51.44243855017" lon="3.579291660151">
        <ele>3.8</ele>
        <time>2019-05-26T16:28:10Z</time>
      </trkpt>
      <trkpt lat="51.442407788597" lon="3.579508248447">
        <ele>3.6</ele>
        <time>2019-05-26T16:28:13Z</time>
      </trkpt>
      <trkpt lat="51.442194888337" lon="3.580393041811">
        <ele>3</ele>
        <time>2019-05-26T16:28:24Z</time>
      </trkpt>
      <trkpt lat="51.441954663083" lon="3.581214635649">
        <ele>2.8</ele>
        <time>2019-05-26T16:28:35Z</time>
      </trkpt>
      <trkpt lat="51.441662218592" lon="3.581921313638">
        <ele>1</ele>
        <time>2019-05-26T16:28:58Z</time>
      </trkpt>
      <trkpt lat="51.441747797791" lon="3.582798311835">
        <ele>2</ele>
        <time>2019-05-26T16:29:17Z</time>
      </trkpt>
      <trkpt lat="51.44176799817" lon="3.583696180963">
        <ele>0.4</ele>
        <time>2019-05-26T16:29:30Z</time>
      </trkpt>
      <trkpt lat="51.441791216033" lon="3.584324152911">
        <ele>0</ele>
        <time>2019-05-26T16:29:38Z</time>
      </trkpt>
      <trkpt lat="51.441781660667" lon="3.584477541681">
        <ele>0</ele>
        <time>2019-05-26T16:29:40Z</time>
      </trkpt>
      <trkpt lat="51.441773949319" lon="3.584627745329">
        <ele>0</ele>
        <time>2019-05-26T16:29:42Z</time>
      </trkpt>
      <trkpt lat="51.441762549935" lon="3.584779038624">
        <ele>0</ele>
        <time>2019-05-26T16:29:44Z</time>
      </trkpt>
      <trkpt lat="51.441752156379" lon="3.585006691028">
        <ele>0</ele>
        <time>2019-05-26T16:29:47Z</time>
      </trkpt>
      <trkpt lat="51.441852152446" lon="3.585778161104">
        <ele>0</ele>
        <time>2019-05-26T16:29:57Z</time>
      </trkpt>
      <trkpt lat="51.442033201486" lon="3.586489700595">
        <ele>0</ele>
        <time>2019-05-26T16:30:06Z</time>
      </trkpt>
      <trkpt lat="51.442265212478" lon="3.587363094575">
        <ele>5.6</ele>
        <time>2019-05-26T16:30:16Z</time>
      </trkpt>
      <trkpt lat="51.442303517761" lon="3.587611282634">
        <ele>5.6</ele>
        <time>2019-05-26T16:30:19Z</time>
      </trkpt>
      <trkpt lat="51.442344337614" lon="3.588509570857">
        <ele>3.6</ele>
        <time>2019-05-26T16:30:30Z</time>
      </trkpt>
      <trkpt lat="51.442388761684" lon="3.589402494664">
        <ele>3</ele>
        <time>2019-05-26T16:30:41Z</time>
      </trkpt>
      <trkpt lat="51.442400915439" lon="3.58988478919">
        <ele>1</ele>
        <time>2019-05-26T16:30:47Z</time>
      </trkpt>
      <trkpt lat="51.442439975093" lon="3.590019151047">
        <ele>0.2</ele>
        <time>2019-05-26T16:30:49Z</time>
      </trkpt>
      <trkpt lat="51.442635021906" lon="3.590438078409">
        <ele>0</ele>
        <time>2019-05-26T16:30:56Z</time>
      </trkpt>
      <trkpt lat="51.442665783479" lon="3.590584426383">
        <ele>0</ele>
        <time>2019-05-26T16:30:58Z</time>
      </trkpt>
      <trkpt lat="51.4426623469" lon="3.590743850121">
        <ele>0</ele>
        <time>2019-05-26T16:31:00Z</time>
      </trkpt>
      <trkpt lat="51.442554807123" lon="3.591658315411">
        <ele>0</ele>
        <time>2019-05-26T16:31:11Z</time>
      </trkpt>
      <trkpt lat="51.442450536287" lon="3.592524668595">
        <ele>0</ele>
        <time>2019-05-26T16:31:23Z</time>
      </trkpt>
      <trkpt lat="51.442267978505" lon="3.593359170559">
        <ele>0</ele>
        <time>2019-05-26T16:31:36Z</time>
      </trkpt>
      <trkpt lat="51.442236462561" lon="3.593478612634">
        <ele>0</ele>
        <time>2019-05-26T16:31:38Z</time>
      </trkpt>
      <trkpt lat="51.442048288906" lon="3.59429785954">
        <ele>0</ele>
        <time>2019-05-26T16:31:51Z</time>
      </trkpt>
      <trkpt lat="51.441822312882" lon="3.595106964347">
        <ele>0</ele>
        <time>2019-05-26T16:32:06Z</time>
      </trkpt>
      <trkpt lat="51.441783672323" lon="3.595927719995">
        <ele>0</ele>
        <time>2019-05-26T16:32:32Z</time>
      </trkpt>
      <trkpt lat="51.442299913544" lon="3.596253943543">
        <ele>0</ele>
        <time>2019-05-26T16:32:51Z</time>
      </trkpt>
      <trkpt lat="51.442333860239" lon="3.596294763396">
        <ele>0</ele>
        <time>2019-05-26T16:32:53Z</time>
      </trkpt>
      <trkpt lat="51.442383481087" lon="3.596377576568">
        <ele>0</ele>
        <time>2019-05-26T16:32:57Z</time>
      </trkpt>
      <trkpt lat="51.442623622522" lon="3.596522248162">
        <ele>0</ele>
        <time>2019-05-26T16:33:10Z</time>
      </trkpt>
      <trkpt lat="51.442828979072" lon="3.595728063137">
        <ele>0</ele>
        <time>2019-05-26T16:33:36Z</time>
      </trkpt>
      <trkpt lat="51.442907685113" lon="3.595414747715">
        <ele>0</ele>
        <time>2019-05-26T16:33:47Z</time>
      </trkpt>
      <trkpt lat="51.442952276821" lon="3.595375268966">
        <ele>0</ele>
        <time>2019-05-26T16:33:55Z</time>
      </trkpt>
      <trkpt lat="51.442923107809" lon="3.595387003626">
        <ele>0</ele>
        <time>2019-05-26T16:33:58Z</time>
      </trkpt>
      <trkpt lat="51.442847335433" lon="3.595711802251">
        <ele>0</ele>
        <time>2019-05-26T16:34:07Z</time>
      </trkpt>
      <trkpt lat="51.442840210818" lon="3.595650362924">
        <ele>0</ele>
        <time>2019-05-26T16:34:12Z</time>
      </trkpt>
      <trkpt lat="51.442989157181" lon="3.595092128384">
        <ele>0</ele>
        <time>2019-05-26T16:34:29Z</time>
      </trkpt>
      <trkpt lat="51.442985385326" lon="3.595034963826">
        <ele>0</ele>
        <time>2019-05-26T16:34:31Z</time>
      </trkpt>
      <trkpt lat="51.443090159076" lon="3.594732628693">
        <ele>0</ele>
        <time>2019-05-26T16:34:41Z</time>
      </trkpt>
      <trkpt lat="51.443449910224" lon="3.594787278681">
        <ele>0</ele>
        <time>2019-05-26T16:35:01Z</time>
      </trkpt>
      <trkpt lat="51.443390231096" lon="3.595634185857">
        <ele>0</ele>
        <time>2019-05-26T16:35:15Z</time>
      </trkpt>
      <trkpt lat="51.443783426025" lon="3.596004749656">
        <ele>0</ele>
        <time>2019-05-26T16:35:28Z</time>
      </trkpt>
      <trkpt lat="51.443751490986" lon="3.595197153591">
        <ele>0</ele>
        <time>2019-05-26T16:35:46Z</time>
      </trkpt>
      <trkpt lat="51.443774373573" lon="3.594998670199">
        <ele>0</ele>
        <time>2019-05-26T16:35:50Z</time>
      </trkpt>
      <trkpt lat="51.444047539694" lon="3.594695329238">
        <ele>0</ele>
        <time>2019-05-26T16:35:59Z</time>
      </trkpt>
      <trkpt lat="51.444576102308" lon="3.594801192635">
        <ele>0</ele>
        <time>2019-05-26T16:36:14Z</time>
      </trkpt>
      <trkpt lat="51.445115477573" lon="3.594747464656">
        <ele>0</ele>
        <time>2019-05-26T16:36:31Z</time>
      </trkpt>
      <trkpt lat="51.445630880604" lon="3.594547975436">
        <ele>0</ele>
        <time>2019-05-26T16:36:48Z</time>
      </trkpt>
      <trkpt lat="51.446067409956" lon="3.594233235091">
        <ele>0</ele>
        <time>2019-05-26T16:37:06Z</time>
      </trkpt>
      <trkpt lat="51.44621711069" lon="3.594072134973">
        <ele>0</ele>
        <time>2019-05-26T16:37:13Z</time>
      </trkpt>
      <trkpt lat="51.446219206165" lon="3.593301167811">
        <ele>0</ele>
        <time>2019-05-26T16:37:28Z</time>
      </trkpt>
      <trkpt lat="51.446755144851" lon="3.593235705172">
        <ele>0</ele>
        <time>2019-05-26T16:37:46Z</time>
      </trkpt>
      <trkpt lat="51.447292005546" lon="3.59314702467">
        <ele>0</ele>
        <time>2019-05-26T16:38:02Z</time>
      </trkpt>
      <trkpt lat="51.447691738357" lon="3.592796912707">
        <ele>0</ele>
        <time>2019-05-26T16:38:20Z</time>
      </trkpt>
      <trkpt lat="51.447887120446" lon="3.59203977568">
        <ele>0</ele>
        <time>2019-05-26T16:38:38Z</time>
      </trkpt>
      <trkpt lat="51.447864070221" lon="3.591970457367">
        <ele>0</ele>
        <time>2019-05-26T16:38:40Z</time>
      </trkpt>
      <trkpt lat="51.447823753282" lon="3.591974815955">
        <ele>0</ele>
        <time>2019-05-26T16:38:42Z</time>
      </trkpt>
      <trkpt lat="51.447898603649" lon="3.592759026519">
        <ele>2</ele>
        <time>2019-05-26T16:38:59Z</time>
      </trkpt>
      <trkpt lat="51.448142768396" lon="3.592122085938">
        <ele>0</ele>
        <time>2019-05-26T16:39:19Z</time>
      </trkpt>
      <trkpt lat="51.448306634541" lon="3.591284901766">
        <ele>0</ele>
        <time>2019-05-26T16:39:40Z</time>
      </trkpt>
      <trkpt lat="51.448410486282" lon="3.590602782744">
        <ele>0</ele>
        <time>2019-05-26T16:40:01Z</time>
      </trkpt>
      <trkpt lat="51.448432698317" lon="3.590582582365">
        <ele>0</ele>
        <time>2019-05-26T16:40:03Z</time>
      </trkpt>
      <trkpt lat="51.44847435636" lon="3.590594652301">
        <ele>0</ele>
        <time>2019-05-26T16:40:05Z</time>
      </trkpt>
      <trkpt lat="51.448471590333" lon="3.590848540052">
        <ele>0</ele>
        <time>2019-05-26T16:40:11Z</time>
      </trkpt>
      <trkpt lat="51.448521378819" lon="3.590880894186">
        <ele>0</ele>
        <time>2019-05-26T16:40:13Z</time>
      </trkpt>
      <trkpt lat="51.449039631696" lon="3.5910657989">
        <ele>0</ele>
        <time>2019-05-26T16:40:31Z</time>
      </trkpt>
      <trkpt lat="51.449593675286" lon="3.591250787433">
        <ele>2.2</ele>
        <time>2019-05-26T16:40:46Z</time>
      </trkpt>
      <trkpt lat="51.450150149627" lon="3.591268808518">
        <ele>0</ele>
        <time>2019-05-26T16:41:01Z</time>
      </trkpt>
      <trkpt lat="51.4507089709" lon="3.591261432446">
        <ele>0</ele>
        <time>2019-05-26T16:41:20Z</time>
      </trkpt>
      <trkpt lat="51.45126301449" lon="3.591370648603">
        <ele>0</ele>
        <time>2019-05-26T16:41:37Z</time>
      </trkpt>
      <trkpt lat="51.451827367817" lon="3.591540633535">
        <ele>0.4</ele>
        <time>2019-05-26T16:41:52Z</time>
      </trkpt>
      <trkpt lat="51.452343525219" lon="3.591887308919">
        <ele>1.2</ele>
        <time>2019-05-26T16:42:07Z</time>
      </trkpt>
      <trkpt lat="51.452841829174" lon="3.592303218797">
        <ele>0</ele>
        <time>2019-05-26T16:42:22Z</time>
      </trkpt>
      <trkpt lat="51.453857799273" lon="3.592825411167">
        <ele>1.4</ele>
        <time>2019-05-26T16:42:51Z</time>
      </trkpt>
      <trkpt lat="51.454396084891" lon="3.592792973214">
        <ele>0</ele>
        <time>2019-05-26T16:43:06Z</time>
      </trkpt>
      <trkpt lat="51.454931520663" lon="3.592909565443">
        <ele>0.6</ele>
        <time>2019-05-26T16:43:19Z</time>
      </trkpt>
      <trkpt lat="51.455496125447" lon="3.592865141373">
        <ele>0</ele>
        <time>2019-05-26T16:43:33Z</time>
      </trkpt>
      <trkpt lat="51.456079170411" lon="3.592779813631">
        <ele>0</ele>
        <time>2019-05-26T16:43:46Z</time>
      </trkpt>
      <trkpt lat="51.456644529566" lon="3.592694988803">
        <ele>0</ele>
        <time>2019-05-26T16:43:59Z</time>
      </trkpt>
      <trkpt lat="51.457002771972" lon="3.592156032633">
        <ele>0</ele>
        <time>2019-05-26T16:44:20Z</time>
      </trkpt>
      <trkpt lat="51.457131015042" lon="3.591275430219">
        <ele>0</ele>
        <time>2019-05-26T16:44:37Z</time>
      </trkpt>
      <trkpt lat="51.457197232052" lon="3.591102595441">
        <ele>0</ele>
        <time>2019-05-26T16:44:40Z</time>
      </trkpt>
      <trkpt lat="51.457272417695" lon="3.591028415626">
        <ele>0</ele>
        <time>2019-05-26T16:44:42Z</time>
      </trkpt>
      <trkpt lat="51.457370737382" lon="3.591007460876">
        <ele>0</ele>
        <time>2019-05-26T16:44:44Z</time>
      </trkpt>
      <trkpt lat="51.457484982679" lon="3.591028164169">
        <ele>0</ele>
        <time>2019-05-26T16:44:46Z</time>
      </trkpt>
      <trkpt lat="51.45786124617" lon="3.591170488831">
        <ele>0</ele>
        <time>2019-05-26T16:44:52Z</time>
      </trkpt>
      <trkpt lat="51.458349324207" lon="3.591602911052">
        <ele>0</ele>
        <time>2019-05-26T16:45:05Z</time>
      </trkpt>
      <trkpt lat="51.458876629536" lon="3.59186291759">
        <ele>0</ele>
        <time>2019-05-26T16:45:18Z</time>
      </trkpt>
      <trkpt lat="51.459402007028" lon="3.59215879866">
        <ele>0</ele>
        <time>2019-05-26T16:45:29Z</time>
      </trkpt>
      <trkpt lat="51.459934425316" lon="3.592437245378">
        <ele>0</ele>
        <time>2019-05-26T16:45:40Z</time>
      </trkpt>
      <trkpt lat="51.460065182956" lon="3.592522908396">
        <ele>0</ele>
        <time>2019-05-26T16:45:43Z</time>
      </trkpt>
      <trkpt lat="51.460617298709" lon="3.592805629883">
        <ele>0</ele>
        <time>2019-05-26T16:45:56Z</time>
      </trkpt>
      <trkpt lat="51.460946372103" lon="3.592993216805">
        <ele>0</ele>
        <time>2019-05-26T16:46:03Z</time>
      </trkpt>
      <trkpt lat="51.461466720455" lon="3.593281637984">
        <ele>0</ele>
        <time>2019-05-26T16:46:16Z</time>
      </trkpt>
      <trkpt lat="51.461602255778" lon="3.593324218036">
        <ele>0</ele>
        <time>2019-05-26T16:46:19Z</time>
      </trkpt>
      <trkpt lat="51.461737455825" lon="3.593401163878">
        <ele>0</ele>
        <time>2019-05-26T16:46:22Z</time>
      </trkpt>
      <trkpt lat="51.462259480557" lon="3.593619847649">
        <ele>0</ele>
        <time>2019-05-26T16:46:34Z</time>
      </trkpt>
      <trkpt lat="51.46278142147" lon="3.593906340991">
        <ele>0</ele>
        <time>2019-05-26T16:46:48Z</time>
      </trkpt>
      <trkpt lat="51.463317108699" lon="3.594186631727">
        <ele>0</ele>
        <time>2019-05-26T16:47:05Z</time>
      </trkpt>
      <trkpt lat="51.463838043784" lon="3.594433730139">
        <ele>0</ele>
        <time>2019-05-26T16:47:22Z</time>
      </trkpt>
      <trkpt lat="51.464355290833" lon="3.594718882377">
        <ele>0</ele>
        <time>2019-05-26T16:47:38Z</time>
      </trkpt>
      <trkpt lat="51.464739936224" lon="3.594925412393">
        <ele>0</ele>
        <time>2019-05-26T16:47:53Z</time>
      </trkpt>
      <trkpt lat="51.464782432457" lon="3.594879814857">
        <ele>0</ele>
        <time>2019-05-26T16:47:57Z</time>
      </trkpt>
      <trkpt lat="51.46478469557" lon="3.59484016847">
        <ele>0</ele>
        <time>2019-05-26T16:47:59Z</time>
      </trkpt>
      <trkpt lat="51.464770362521" lon="3.594819800453">
        <ele>0</ele>
        <time>2019-05-26T16:48:01Z</time>
      </trkpt>
      <trkpt lat="51.464231406351" lon="3.594666244045">
        <ele>0</ele>
        <time>2019-05-26T16:48:19Z</time>
      </trkpt>
      <trkpt lat="51.463717512062" lon="3.594397268874">
        <ele>0</ele>
        <time>2019-05-26T16:48:36Z</time>
      </trkpt>
      <trkpt lat="51.463618270366" lon="3.594330884226">
        <ele>0</ele>
        <time>2019-05-26T16:48:46Z</time>
      </trkpt>
      <trkpt lat="51.463080068567" lon="3.594050174395">
        <ele>0</ele>
        <time>2019-05-26T16:49:06Z</time>
      </trkpt>
      <trkpt lat="51.462554188161" lon="3.593761837035">
        <ele>0</ele>
        <time>2019-05-26T16:49:22Z</time>
      </trkpt>
      <trkpt lat="51.46201866857" lon="3.593461262101">
        <ele>0</ele>
        <time>2019-05-26T16:49:38Z</time>
      </trkpt>
      <trkpt lat="51.461489686861" lon="3.593270070962">
        <ele>0</ele>
        <time>2019-05-26T16:49:55Z</time>
      </trkpt>
      <trkpt lat="51.460992556372" lon="3.592935381695">
        <ele>0</ele>
        <time>2019-05-26T16:50:12Z</time>
      </trkpt>
      <trkpt lat="51.46045209146" lon="3.592652660208">
        <ele>0</ele>
        <time>2019-05-26T16:50:30Z</time>
      </trkpt>
      <trkpt lat="51.459911794186" lon="3.59237588987">
        <ele>0</ele>
        <time>2019-05-26T16:50:48Z</time>
      </trkpt>
      <trkpt lat="51.459399743915" lon="3.592101550283">
        <ele>0</ele>
        <time>2019-05-26T16:51:04Z</time>
      </trkpt>
      <trkpt lat="51.45887629426" lon="3.591814721665">
        <ele>0</ele>
        <time>2019-05-26T16:51:22Z</time>
      </trkpt>
      <trkpt lat="51.458348318379" lon="3.591516996577">
        <ele>2.2</ele>
        <time>2019-05-26T16:51:46Z</time>
      </trkpt>
      <trkpt lat="51.45783693866" lon="3.591136290679">
        <ele>0</ele>
        <time>2019-05-26T16:51:59Z</time>
      </trkpt>
      <trkpt lat="51.45764415496" lon="3.5909987437">
        <ele>0.4</ele>
        <time>2019-05-26T16:52:03Z</time>
      </trkpt>
      <trkpt lat="51.457122633142" lon="3.59116973446">
        <ele>0</ele>
        <time>2019-05-26T16:52:26Z</time>
      </trkpt>
      <trkpt lat="51.456971423666" lon="3.592007337727">
        <ele>0</ele>
        <time>2019-05-26T16:52:43Z</time>
      </trkpt>
      <trkpt lat="51.456644864842" lon="3.592633717114">
        <ele>0</ele>
        <time>2019-05-26T16:52:58Z</time>
      </trkpt>
      <trkpt lat="51.456090653614" lon="3.592695324079">
        <ele>0</ele>
        <time>2019-05-26T16:53:14Z</time>
      </trkpt>
      <trkpt lat="51.45552353426" lon="3.592756511949">
        <ele>0</ele>
        <time>2019-05-26T16:53:31Z</time>
      </trkpt>
      <trkpt lat="51.454981309149" lon="3.592830691764">
        <ele>0</ele>
        <time>2019-05-26T16:53:47Z</time>
      </trkpt>
      <trkpt lat="51.454426762645" lon="3.592715273001">
        <ele>0</ele>
        <time>2019-05-26T16:54:04Z</time>
      </trkpt>
      <trkpt lat="51.453885459543" lon="3.592763804202">
        <ele>0.6</ele>
        <time>2019-05-26T16:54:23Z</time>
      </trkpt>
      <trkpt lat="51.453335774541" lon="3.592624413205">
        <ele>0</ele>
        <time>2019-05-26T16:54:37Z</time>
      </trkpt>
      <trkpt lat="51.45303410996" lon="3.592507820976">
        <ele>1.6</ele>
        <time>2019-05-26T16:54:44Z</time>
      </trkpt>
      <trkpt lat="51.452964372552" lon="3.59243540136">
        <ele>0</ele>
        <time>2019-05-26T16:54:46Z</time>
      </trkpt>
      <trkpt lat="51.452520383309" lon="3.59201714455">
        <ele>0</ele>
        <time>2019-05-26T16:54:59Z</time>
      </trkpt>
      <trkpt lat="51.452025432114" lon="3.591650436425">
        <ele>0</ele>
        <time>2019-05-26T16:55:12Z</time>
      </trkpt>
      <trkpt lat="51.451850920956" lon="3.591514901102">
        <ele>0</ele>
        <time>2019-05-26T16:55:17Z</time>
      </trkpt>
      <trkpt lat="51.45169635872" lon="3.591448600273">
        <ele>0</ele>
        <time>2019-05-26T16:55:21Z</time>
      </trkpt>
      <trkpt lat="51.451159833301" lon="3.591264030835">
        <ele>0</ele>
        <time>2019-05-26T16:55:33Z</time>
      </trkpt>
      <trkpt lat="51.4506000062" lon="3.59117895455">
        <ele>0</ele>
        <time>2019-05-26T16:55:45Z</time>
      </trkpt>
      <trkpt lat="51.450513504992" lon="3.591159257085">
        <ele>0</ele>
        <time>2019-05-26T16:55:46Z</time>
      </trkpt>
      <trkpt lat="51.450469500017" lon="3.591162693664">
        <ele>0</ele>
        <time>2019-05-26T16:55:48Z</time>
      </trkpt>
      <trkpt lat="51.449891651831" lon="3.591218265661">
        <ele>0</ele>
        <time>2019-05-26T16:56:01Z</time>
      </trkpt>
      <trkpt lat="51.449337859698" lon="3.591136039222">
        <ele>0</ele>
        <time>2019-05-26T16:56:14Z</time>
      </trkpt>
      <trkpt lat="51.448809464722" lon="3.590925402075">
        <ele>0</ele>
        <time>2019-05-26T16:56:29Z</time>
      </trkpt>
      <trkpt lat="51.44879119218" lon="3.590933700156">
        <ele>0</ele>
        <time>2019-05-26T16:56:30Z</time>
      </trkpt>
      <trkpt lat="51.448569239468" lon="3.591454551422">
        <ele>0</ele>
        <time>2019-05-26T16:56:49Z</time>
      </trkpt>
      <trkpt lat="51.448386597867" lon="3.592282180228">
        <ele>0</ele>
        <time>2019-05-26T16:57:06Z</time>
      </trkpt>
      <trkpt lat="51.448188701208" lon="3.593115089631">
        <ele>0</ele>
        <time>2019-05-26T16:57:20Z</time>
      </trkpt>
      <trkpt lat="51.44791025449" lon="3.593799890861">
        <ele>0</ele>
        <time>2019-05-26T16:57:33Z</time>
      </trkpt>
      <trkpt lat="51.447411615259" lon="3.594219991689">
        <ele>0</ele>
        <time>2019-05-26T16:57:48Z</time>
      </trkpt>
      <trkpt lat="51.447332322485" lon="3.594252262004">
        <ele>0</ele>
        <time>2019-05-26T16:57:50Z</time>
      </trkpt>
      <trkpt lat="51.446787498985" lon="3.594373715735">
        <ele>0</ele>
        <time>2019-05-26T16:58:03Z</time>
      </trkpt>
      <trkpt lat="51.446239155087" lon="3.594468682662">
        <ele>0</ele>
        <time>2019-05-26T16:58:16Z</time>
      </trkpt>
      <trkpt lat="51.445672203371" lon="3.594613102799">
        <ele>0</ele>
        <time>2019-05-26T16:58:30Z</time>
      </trkpt>
      <trkpt lat="51.445116986315" lon="3.594711673943">
        <ele>0</ele>
        <time>2019-05-26T16:58:45Z</time>
      </trkpt>
      <trkpt lat="51.444581885819" lon="3.594821979747">
        <ele>0</ele>
        <time>2019-05-26T16:58:57Z</time>
      </trkpt>
      <trkpt lat="51.444051898282" lon="3.594984253331">
        <ele>0</ele>
        <time>2019-05-26T16:59:11Z</time>
      </trkpt>
      <trkpt lat="51.443869005224" lon="3.595204697301">
        <ele>0</ele>
        <time>2019-05-26T16:59:20Z</time>
      </trkpt>
      <trkpt lat="51.443795663599" lon="3.595573333263">
        <ele>0</ele>
        <time>2019-05-26T16:59:30Z</time>
      </trkpt>
      <trkpt lat="51.443887277766" lon="3.594766491569">
        <ele>0</ele>
        <time>2019-05-26T16:59:47Z</time>
      </trkpt>
      <trkpt lat="51.443995739552" lon="3.594604720899">
        <ele>0</ele>
        <time>2019-05-26T16:59:51Z</time>
      </trkpt>
      <trkpt lat="51.443949220007" lon="3.594366758758">
        <ele>0</ele>
        <time>2019-05-26T16:59:56Z</time>
      </trkpt>
      <trkpt lat="51.443504979307" lon="3.594696502704">
        <ele>0</ele>
        <time>2019-05-26T17:00:12Z</time>
      </trkpt>
      <trkpt lat="51.44337229383" lon="3.595516336343">
        <ele>0</ele>
        <time>2019-05-26T17:00:26Z</time>
      </trkpt>
      <trkpt lat="51.44350472785" lon="3.595414999172">
        <ele>0</ele>
        <time>2019-05-26T17:00:31Z</time>
      </trkpt>
      <trkpt lat="51.443737074118" lon="3.594644367286">
        <ele>0</ele>
        <time>2019-05-26T17:00:47Z</time>
      </trkpt>
      <trkpt lat="51.444120629862" lon="3.594494331276">
        <ele>0</ele>
        <time>2019-05-26T17:00:58Z</time>
      </trkpt>
      <trkpt lat="51.44469998679" lon="3.594411182828">
        <ele>0</ele>
        <time>2019-05-26T17:01:11Z</time>
      </trkpt>
      <trkpt lat="51.444908444643" lon="3.594361813437">
        <ele>0</ele>
        <time>2019-05-26T17:01:16Z</time>
      </trkpt>
      <trkpt lat="51.445456285627" lon="3.594262152646">
        <ele>0</ele>
        <time>2019-05-26T17:01:30Z</time>
      </trkpt>
      <trkpt lat="51.446026925379" lon="3.5941671019">
        <ele>0</ele>
        <time>2019-05-26T17:01:46Z</time>
      </trkpt>
      <trkpt lat="51.446204454021" lon="3.594083701995">
        <ele>0</ele>
        <time>2019-05-26T17:01:52Z</time>
      </trkpt>
      <trkpt lat="51.446213338835" lon="3.593359002921">
        <ele>0</ele>
        <time>2019-05-26T17:02:06Z</time>
      </trkpt>
      <trkpt lat="51.445725344617" lon="3.593169823438">
        <ele>0</ele>
        <time>2019-05-26T17:02:22Z</time>
      </trkpt>
      <trkpt lat="51.445197536374" lon="3.593251882239">
        <ele>0</ele>
        <time>2019-05-26T17:02:39Z</time>
      </trkpt>
      <trkpt lat="51.44507130496" lon="3.594030225473">
        <ele>0</ele>
        <time>2019-05-26T17:02:55Z</time>
      </trkpt>
      <trkpt lat="51.444987066865" lon="3.594070290955">
        <ele>0</ele>
        <time>2019-05-26T17:02:57Z</time>
      </trkpt>
      <trkpt lat="51.444713984563" lon="3.594078924312">
        <ele>0</ele>
        <time>2019-05-26T17:03:03Z</time>
      </trkpt>
      <trkpt lat="51.444622202758" lon="3.594119744165">
        <ele>0</ele>
        <time>2019-05-26T17:03:05Z</time>
      </trkpt>
      <trkpt lat="51.444535533912" lon="3.594318479014">
        <ele>0</ele>
        <time>2019-05-26T17:03:09Z</time>
      </trkpt>
      <trkpt lat="51.445470451038" lon="3.594068027842">
        <ele>0</ele>
        <time>2019-05-26T17:03:36Z</time>
      </trkpt>
      <trkpt lat="51.44554739688" lon="3.594081857977">
        <ele>0</ele>
        <time>2019-05-26T17:03:38Z</time>
      </trkpt>
      <trkpt lat="51.445600370488" lon="3.594567924358">
        <ele>0</ele>
        <time>2019-05-26T17:03:46Z</time>
      </trkpt>
      <trkpt lat="51.445453435781" lon="3.594697173256">
        <ele>0</ele>
        <time>2019-05-26T17:03:50Z</time>
      </trkpt>
      <trkpt lat="51.444897631992" lon="3.59477981879">
        <ele>0</ele>
        <time>2019-05-26T17:04:03Z</time>
      </trkpt>
      <trkpt lat="51.44434794699" lon="3.594869253663">
        <ele>0.6</ele>
        <time>2019-05-26T17:04:17Z</time>
      </trkpt>
      <trkpt lat="51.443897084589" lon="3.595184916017">
        <ele>0</ele>
        <time>2019-05-26T17:04:32Z</time>
      </trkpt>
      <trkpt lat="51.443935138415" lon="3.595717921038">
        <ele>0</ele>
        <time>2019-05-26T17:04:42Z</time>
      </trkpt>
      <trkpt lat="51.443843272791" lon="3.59590047882">
        <ele>0</ele>
        <time>2019-05-26T17:04:48Z</time>
      </trkpt>
      <trkpt lat="51.443812595037" lon="3.59581749801">
        <ele>0</ele>
        <time>2019-05-26T17:04:51Z</time>
      </trkpt>
      <trkpt lat="51.443847631379" lon="3.5957680448">
        <ele>0</ele>
        <time>2019-05-26T17:04:53Z</time>
      </trkpt>
      <trkpt lat="51.443893731829" lon="3.595772990121">
        <ele>0</ele>
        <time>2019-05-26T17:04:58Z</time>
      </trkpt>
    </trkseg>
  </trk>
</gpx>